sensor_id;sensor_type;location;lat;lon;timestamp;temperature;humidity
36450;DHT22;22475;51.390;7.180;2024-03-29T00:01:57;14.10;84.50
36450;DHT22;22475;51.390;7.180;2024-03-29T00:04:23;14.10;85.10
36450;DHT22;22475;51.390;7.180;2024-03-29T00:06:49;14.10;84.50
36450;DHT22;22475;51.390;7.180;2024-03-29T00:09:15;14.20;85.50
36450;DHT22;22475;51.390;7.180;2024-03-29T00:11:40;14.10;83.90
36450;DHT22;22475;51.390;7.180;2024-03-29T00:14:06;14.10;85.40
36450;DHT22;22475;51.390;7.180;2024-03-29T00:16:32;14.10;84.00
36450;DHT22;22475;51.390;7.180;2024-03-29T00:18:59;14.10;82.60
36450;DHT22;22475;51.390;7.180;2024-03-29T00:21:25;14.10;85.20
36450;DHT22;22475;51.390;7.180;2024-03-29T00:23:51;14.10;85.40
36450;DHT22;22475;51.390;7.180;2024-03-29T00:26:17;14.20;86.40
36450;DHT22;22475;51.390;7.180;2024-03-29T00:28:43;14.20;86.10
36450;DHT22;22475;51.390;7.180;2024-03-29T00:31:09;14.20;86.30
36450;DHT22;22475;51.390;7.180;2024-03-29T00:33:35;14.20;85.80
36450;DHT22;22475;51.390;7.180;2024-03-29T00:36:02;14.10;85.30
36450;DHT22;22475;51.390;7.180;2024-03-29T00:38:28;14.10;84.60
36450;DHT22;22475;51.390;7.180;2024-03-29T00:40:54;14.10;82.50
36450;DHT22;22475;51.390;7.180;2024-03-29T00:43:20;14.00;82.40
36450;DHT22;22475;51.390;7.180;2024-03-29T00:45:45;14.10;85.10
36450;DHT22;22475;51.390;7.180;2024-03-29T00:48:11;14.10;85.00
36450;DHT22;22475;51.390;7.180;2024-03-29T00:50:37;14.10;85.20
36450;DHT22;22475;51.390;7.180;2024-03-29T00:53:05;14.20;86.10
36450;DHT22;22475;51.390;7.180;2024-03-29T00:55:30;14.10;85.10
36450;DHT22;22475;51.390;7.180;2024-03-29T00:57:56;14.10;84.50
36450;DHT22;22475;51.390;7.180;2024-03-29T01:00:22;14.20;86.30
36450;DHT22;22475;51.390;7.180;2024-03-29T01:02:48;14.20;86.80
36450;DHT22;22475;51.390;7.180;2024-03-29T01:05:14;14.20;86.70
36450;DHT22;22475;51.390;7.180;2024-03-29T01:07:40;14.10;84.70
36450;DHT22;22475;51.390;7.180;2024-03-29T01:10:08;14.20;85.30
36450;DHT22;22475;51.390;7.180;2024-03-29T01:12:34;14.10;84.80
36450;DHT22;22475;51.390;7.180;2024-03-29T01:15:00;14.10;85.30
36450;DHT22;22475;51.390;7.180;2024-03-29T01:17:26;14.20;84.80
36450;DHT22;22475;51.390;7.180;2024-03-29T01:19:52;14.20;85.80
36450;DHT22;22475;51.390;7.180;2024-03-29T01:22:18;14.20;86.50
36450;DHT22;22475;51.390;7.180;2024-03-29T01:24:43;14.20;85.80
36450;DHT22;22475;51.390;7.180;2024-03-29T01:27:11;14.20;86.40
36450;DHT22;22475;51.390;7.180;2024-03-29T01:29:36;14.20;86.70
36450;DHT22;22475;51.390;7.180;2024-03-29T01:32:03;14.20;86.90
36450;DHT22;22475;51.390;7.180;2024-03-29T01:34:29;14.30;86.50
36450;DHT22;22475;51.390;7.180;2024-03-29T01:36:54;14.30;87.30
36450;DHT22;22475;51.390;7.180;2024-03-29T01:39:20;14.30;86.70
36450;DHT22;22475;51.390;7.180;2024-03-29T01:41:46;14.30;86.80
36450;DHT22;22475;51.390;7.180;2024-03-29T01:44:13;14.30;86.50
36450;DHT22;22475;51.390;7.180;2024-03-29T01:46:40;14.30;85.60
36450;DHT22;22475;51.390;7.180;2024-03-29T01:49:07;14.20;85.40
36450;DHT22;22475;51.390;7.180;2024-03-29T01:51:37;14.20;85.20
36450;DHT22;22475;51.390;7.180;2024-03-29T01:54:06;14.20;85.80
36450;DHT22;22475;51.390;7.180;2024-03-29T01:56:35;14.20;85.10
36450;DHT22;22475;51.390;7.180;2024-03-29T01:59:03;14.20;85.80
36450;DHT22;22475;51.390;7.180;2024-03-29T02:01:32;14.30;86.10
36450;DHT22;22475;51.390;7.180;2024-03-29T02:03:59;14.30;87.20
36450;DHT22;22475;51.390;7.180;2024-03-29T02:06:27;14.30;86.20
36450;DHT22;22475;51.390;7.180;2024-03-29T02:08:54;14.30;83.80
36450;DHT22;22475;51.390;7.180;2024-03-29T02:11:22;14.20;84.80
36450;DHT22;22475;51.390;7.180;2024-03-29T02:13:49;14.30;85.60
36450;DHT22;22475;51.390;7.180;2024-03-29T02:16:16;14.20;84.60
36450;DHT22;22475;51.390;7.180;2024-03-29T02:18:44;14.20;84.60
36450;DHT22;22475;51.390;7.180;2024-03-29T02:21:11;14.20;84.90
36450;DHT22;22475;51.390;7.180;2024-03-29T02:23:42;14.20;85.90
36450;DHT22;22475;51.390;7.180;2024-03-29T02:26:11;14.20;86.30
36450;DHT22;22475;51.390;7.180;2024-03-29T02:28:38;14.30;86.70
36450;DHT22;22475;51.390;7.180;2024-03-29T02:31:04;14.20;85.60
36450;DHT22;22475;51.390;7.180;2024-03-29T02:33:31;14.20;84.40
36450;DHT22;22475;51.390;7.180;2024-03-29T02:35:58;14.10;83.20
36450;DHT22;22475;51.390;7.180;2024-03-29T02:38:25;14.10;82.00
36450;DHT22;22475;51.390;7.180;2024-03-29T02:40:51;14.10;82.40
36450;DHT22;22475;51.390;7.180;2024-03-29T02:43:19;14.10;83.10
36450;DHT22;22475;51.390;7.180;2024-03-29T02:45:46;14.20;84.80
36450;DHT22;22475;51.390;7.180;2024-03-29T02:48:13;14.20;84.70
36450;DHT22;22475;51.390;7.180;2024-03-29T02:50:39;14.20;85.10
36450;DHT22;22475;51.390;7.180;2024-03-29T02:53:05;14.20;85.30
36450;DHT22;22475;51.390;7.180;2024-03-29T02:55:31;14.20;85.10
36450;DHT22;22475;51.390;7.180;2024-03-29T02:57:58;14.20;85.80
36450;DHT22;22475;51.390;7.180;2024-03-29T03:00:25;14.20;84.50
36450;DHT22;22475;51.390;7.180;2024-03-29T03:02:52;14.20;84.70
36450;DHT22;22475;51.390;7.180;2024-03-29T03:05:17;14.20;85.10
36450;DHT22;22475;51.390;7.180;2024-03-29T03:07:44;14.30;85.40
36450;DHT22;22475;51.390;7.180;2024-03-29T03:10:29;14.30;83.90
36450;DHT22;22475;51.390;7.180;2024-03-29T03:13:13;14.30;84.90
36450;DHT22;22475;51.390;7.180;2024-03-29T03:15:41;14.30;85.00
36450;DHT22;22475;51.390;7.180;2024-03-29T03:18:08;14.20;85.60
36450;DHT22;22475;51.390;7.180;2024-03-29T03:20:33;14.20;85.90
36450;DHT22;22475;51.390;7.180;2024-03-29T03:23:00;14.30;86.10
36450;DHT22;22475;51.390;7.180;2024-03-29T03:25:27;14.20;84.60
36450;DHT22;22475;51.390;7.180;2024-03-29T03:27:54;14.10;84.10
36450;DHT22;22475;51.390;7.180;2024-03-29T03:30:20;14.10;83.80
36450;DHT22;22475;51.390;7.180;2024-03-29T03:32:49;14.10;84.00
36450;DHT22;22475;51.390;7.180;2024-03-29T03:35:14;14.10;83.40
36450;DHT22;22475;51.390;7.180;2024-03-29T03:37:41;14.10;83.10
36450;DHT22;22475;51.390;7.180;2024-03-29T03:40:08;14.00;83.10
36450;DHT22;22475;51.390;7.180;2024-03-29T03:42:34;14.00;83.20
36450;DHT22;22475;51.390;7.180;2024-03-29T03:45:00;14.10;83.30
36450;DHT22;22475;51.390;7.180;2024-03-29T03:47:28;14.10;83.60
36450;DHT22;22475;51.390;7.180;2024-03-29T03:49:55;14.00;82.90
36450;DHT22;22475;51.390;7.180;2024-03-29T03:52:22;14.00;82.30
36450;DHT22;22475;51.390;7.180;2024-03-29T03:54:47;14.00;82.70
36450;DHT22;22475;51.390;7.180;2024-03-29T03:57:14;14.00;82.40
36450;DHT22;22475;51.390;7.180;2024-03-29T03:59:40;14.00;82.50
36450;DHT22;22475;51.390;7.180;2024-03-29T04:02:07;14.00;82.40
36450;DHT22;22475;51.390;7.180;2024-03-29T04:04:33;14.00;81.80
36450;DHT22;22475;51.390;7.180;2024-03-29T04:07:01;13.90;81.20
36450;DHT22;22475;51.390;7.180;2024-03-29T04:09:27;13.90;80.80
36450;DHT22;22475;51.390;7.180;2024-03-29T04:11:54;14.00;82.20
36450;DHT22;22475;51.390;7.180;2024-03-29T04:14:20;13.90;81.50
36450;DHT22;22475;51.390;7.180;2024-03-29T04:16:46;13.90;81.40
36450;DHT22;22475;51.390;7.180;2024-03-29T04:19:12;14.00;81.60
36450;DHT22;22475;51.390;7.180;2024-03-29T04:21:39;14.00;81.50
36450;DHT22;22475;51.390;7.180;2024-03-29T04:24:06;14.00;81.60
36450;DHT22;22475;51.390;7.180;2024-03-29T04:26:35;14.00;82.00
36450;DHT22;22475;51.390;7.180;2024-03-29T04:29:02;14.00;82.20
36450;DHT22;22475;51.390;7.180;2024-03-29T04:31:29;14.10;83.50
36450;DHT22;22475;51.390;7.180;2024-03-29T04:33:55;14.00;81.50
36450;DHT22;22475;51.390;7.180;2024-03-29T04:36:22;14.00;80.50
36450;DHT22;22475;51.390;7.180;2024-03-29T04:38:47;14.00;80.40
36450;DHT22;22475;51.390;7.180;2024-03-29T04:41:15;13.90;80.50
36450;DHT22;22475;51.390;7.180;2024-03-29T04:43:43;14.00;81.50
36450;DHT22;22475;51.390;7.180;2024-03-29T04:46:13;14.00;81.50
36450;DHT22;22475;51.390;7.180;2024-03-29T04:48:40;13.90;81.50
36450;DHT22;22475;51.390;7.180;2024-03-29T04:51:07;13.90;80.70
36450;DHT22;22475;51.390;7.180;2024-03-29T04:53:35;13.90;80.60
36450;DHT22;22475;51.390;7.180;2024-03-29T04:56:02;13.90;81.10
36450;DHT22;22475;51.390;7.180;2024-03-29T04:58:30;13.90;81.10
36450;DHT22;22475;51.390;7.180;2024-03-29T05:00:57;13.90;80.90
36450;DHT22;22475;51.390;7.180;2024-03-29T05:03:24;13.90;81.00
36450;DHT22;22475;51.390;7.180;2024-03-29T05:05:52;13.90;81.50
36450;DHT22;22475;51.390;7.180;2024-03-29T05:08:19;13.80;81.40
36450;DHT22;22475;51.390;7.180;2024-03-29T05:10:48;13.80;81.40
36450;DHT22;22475;51.390;7.180;2024-03-29T05:13:15;13.80;82.40
36450;DHT22;22475;51.390;7.180;2024-03-29T05:15:44;13.80;82.20
36450;DHT22;22475;51.390;7.180;2024-03-29T05:18:10;13.80;82.40
36450;DHT22;22475;51.390;7.180;2024-03-29T05:20:37;13.80;82.60
36450;DHT22;22475;51.390;7.180;2024-03-29T05:23:05;13.80;82.70
36450;DHT22;22475;51.390;7.180;2024-03-29T05:25:32;13.70;82.80
36450;DHT22;22475;51.390;7.180;2024-03-29T05:27:58;13.70;82.80
36450;DHT22;22475;51.390;7.180;2024-03-29T05:30:25;13.70;83.10
36450;DHT22;22475;51.390;7.180;2024-03-29T05:32:55;13.70;83.40
36450;DHT22;22475;51.390;7.180;2024-03-29T05:35:22;13.80;83.60
36450;DHT22;22475;51.390;7.180;2024-03-29T05:37:49;13.70;83.70
36450;DHT22;22475;51.390;7.180;2024-03-29T05:40:18;13.80;83.90
36450;DHT22;22475;51.390;7.180;2024-03-29T05:42:50;13.80;84.20
36450;DHT22;22475;51.390;7.180;2024-03-29T05:45:24;13.80;84.50
36450;DHT22;22475;51.390;7.180;2024-03-29T05:47:52;13.70;84.70
36450;DHT22;22475;51.390;7.180;2024-03-29T05:50:21;13.70;84.80
36450;DHT22;22475;51.390;7.180;2024-03-29T05:52:48;13.70;85.00
36450;DHT22;22475;51.390;7.180;2024-03-29T05:55:15;13.70;85.30
36450;DHT22;22475;51.390;7.180;2024-03-29T05:57:41;13.70;86.20
36450;DHT22;22475;51.390;7.180;2024-03-29T06:00:11;13.60;85.50
36450;DHT22;22475;51.390;7.180;2024-03-29T06:02:40;13.70;85.80
36450;DHT22;22475;51.390;7.180;2024-03-29T06:05:07;13.60;85.90
36450;DHT22;22475;51.390;7.180;2024-03-29T06:07:35;13.70;86.30
36450;DHT22;22475;51.390;7.180;2024-03-29T06:10:03;13.60;86.30
36450;DHT22;22475;51.390;7.180;2024-03-29T06:12:31;13.60;86.40
36450;DHT22;22475;51.390;7.180;2024-03-29T06:14:58;13.60;86.20
36450;DHT22;22475;51.390;7.180;2024-03-29T06:17:42;13.60;86.00
36450;DHT22;22475;51.390;7.180;2024-03-29T06:20:10;13.60;86.10
36450;DHT22;22475;51.390;7.180;2024-03-29T06:22:38;13.70;87.80
36450;DHT22;22475;51.390;7.180;2024-03-29T06:25:05;13.70;87.20
36450;DHT22;22475;51.390;7.180;2024-03-29T06:27:33;13.70;87.10
36450;DHT22;22475;51.390;7.180;2024-03-29T06:30:00;13.70;86.60
36450;DHT22;22475;51.390;7.180;2024-03-29T06:32:26;13.70;86.00
36450;DHT22;22475;51.390;7.180;2024-03-29T06:34:53;13.70;85.60
36450;DHT22;22475;51.390;7.180;2024-03-29T06:37:21;13.80;86.60
36450;DHT22;22475;51.390;7.180;2024-03-29T06:39:52;13.70;86.30
36450;DHT22;22475;51.390;7.180;2024-03-29T06:42:18;13.70;86.50
36450;DHT22;22475;51.390;7.180;2024-03-29T06:44:45;13.90;88.00
36450;DHT22;22475;51.390;7.180;2024-03-29T06:47:12;13.80;87.40
36450;DHT22;22475;51.390;7.180;2024-03-29T06:49:39;13.90;88.50
36450;DHT22;22475;51.390;7.180;2024-03-29T06:52:06;13.90;88.70
36450;DHT22;22475;51.390;7.180;2024-03-29T06:54:33;13.80;87.90
36450;DHT22;22475;51.390;7.180;2024-03-29T06:57:01;13.90;88.50
36450;DHT22;22475;51.390;7.180;2024-03-29T06:59:28;13.80;87.40
36450;DHT22;22475;51.390;7.180;2024-03-29T07:01:55;13.80;88.80
36450;DHT22;22475;51.390;7.180;2024-03-29T07:04:22;13.90;88.60
36450;DHT22;22475;51.390;7.180;2024-03-29T07:06:50;13.90;88.80
36450;DHT22;22475;51.390;7.180;2024-03-29T07:09:17;13.90;88.90
36450;DHT22;22475;51.390;7.180;2024-03-29T07:11:45;13.90;88.60
36450;DHT22;22475;51.390;7.180;2024-03-29T07:14:14;14.00;88.90
36450;DHT22;22475;51.390;7.180;2024-03-29T07:16:41;13.90;88.40
36450;DHT22;22475;51.390;7.180;2024-03-29T07:19:08;13.90;88.50
36450;DHT22;22475;51.390;7.180;2024-03-29T07:21:38;14.00;89.30
36450;DHT22;22475;51.390;7.180;2024-03-29T07:24:05;14.00;89.70
36450;DHT22;22475;51.390;7.180;2024-03-29T07:26:31;14.00;89.50
36450;DHT22;22475;51.390;7.180;2024-03-29T07:28:58;14.10;89.60
36450;DHT22;22475;51.390;7.180;2024-03-29T07:31:27;14.10;89.90
36450;DHT22;22475;51.390;7.180;2024-03-29T07:33:53;14.10;89.60
36450;DHT22;22475;51.390;7.180;2024-03-29T07:36:20;14.10;89.70
36450;DHT22;22475;51.390;7.180;2024-03-29T07:38:52;14.10;89.80
36450;DHT22;22475;51.390;7.180;2024-03-29T07:41:19;14.10;90.10
36450;DHT22;22475;51.390;7.180;2024-03-29T07:43:52;14.10;89.90
36450;DHT22;22475;51.390;7.180;2024-03-29T07:46:20;14.10;89.80
36450;DHT22;22475;51.390;7.180;2024-03-29T07:48:48;14.10;90.00
36450;DHT22;22475;51.390;7.180;2024-03-29T07:51:15;14.20;90.10
36450;DHT22;22475;51.390;7.180;2024-03-29T07:53:45;14.20;90.20
36450;DHT22;22475;51.390;7.180;2024-03-29T07:56:12;14.20;89.70
36450;DHT22;22475;51.390;7.180;2024-03-29T07:58:39;14.10;90.00
36450;DHT22;22475;51.390;7.180;2024-03-29T08:01:05;14.10;89.90
36450;DHT22;22475;51.390;7.180;2024-03-29T08:03:32;14.10;90.10
36450;DHT22;22475;51.390;7.180;2024-03-29T08:06:02;14.10;90.00
36450;DHT22;22475;51.390;7.180;2024-03-29T08:08:30;14.10;90.10
36450;DHT22;22475;51.390;7.180;2024-03-29T08:10:57;14.00;90.10
36450;DHT22;22475;51.390;7.180;2024-03-29T08:13:24;14.00;90.10
36450;DHT22;22475;51.390;7.180;2024-03-29T08:15:56;13.90;90.20
36450;DHT22;22475;51.390;7.180;2024-03-29T08:18:24;13.90;90.50
36450;DHT22;22475;51.390;7.180;2024-03-29T08:20:51;14.00;90.50
36450;DHT22;22475;51.390;7.180;2024-03-29T08:23:19;14.00;90.40
36450;DHT22;22475;51.390;7.180;2024-03-29T08:25:45;14.10;90.40
36450;DHT22;22475;51.390;7.180;2024-03-29T08:28:14;14.10;90.30
36450;DHT22;22475;51.390;7.180;2024-03-29T08:30:41;14.10;90.30
36450;DHT22;22475;51.390;7.180;2024-03-29T08:33:08;14.10;90.30
36450;DHT22;22475;51.390;7.180;2024-03-29T08:35:35;14.10;90.40
36450;DHT22;22475;51.390;7.180;2024-03-29T08:38:02;14.10;90.40
36450;DHT22;22475;51.390;7.180;2024-03-29T08:40:30;14.00;90.90
36450;DHT22;22475;51.390;7.180;2024-03-29T08:43:00;14.10;90.40
36450;DHT22;22475;51.390;7.180;2024-03-29T08:45:27;14.10;90.50
36450;DHT22;22475;51.390;7.180;2024-03-29T08:47:54;14.10;90.40
36450;DHT22;22475;51.390;7.180;2024-03-29T08:50:20;14.20;90.40
36450;DHT22;22475;51.390;7.180;2024-03-29T08:52:47;14.10;90.40
36450;DHT22;22475;51.390;7.180;2024-03-29T08:55:14;14.20;90.50
36450;DHT22;22475;51.390;7.180;2024-03-29T08:57:42;14.20;90.40
36450;DHT22;22475;51.390;7.180;2024-03-29T09:00:10;14.20;90.50
36450;DHT22;22475;51.390;7.180;2024-03-29T09:02:37;14.30;90.30
36450;DHT22;22475;51.390;7.180;2024-03-29T09:05:04;14.20;90.30
36450;DHT22;22475;51.390;7.180;2024-03-29T09:07:31;14.20;90.50
36450;DHT22;22475;51.390;7.180;2024-03-29T09:09:59;14.20;90.50
36450;DHT22;22475;51.390;7.180;2024-03-29T09:12:26;14.20;90.60
36450;DHT22;22475;51.390;7.180;2024-03-29T09:14:54;14.20;90.60
36450;DHT22;22475;51.390;7.180;2024-03-29T09:17:21;14.20;90.40
36450;DHT22;22475;51.390;7.180;2024-03-29T09:19:50;14.20;90.40
36450;DHT22;22475;51.390;7.180;2024-03-29T09:22:17;14.20;90.40
36450;DHT22;22475;51.390;7.180;2024-03-29T09:24:44;14.30;90.30
36450;DHT22;22475;51.390;7.180;2024-03-29T09:27:10;14.20;90.40
36450;DHT22;22475;51.390;7.180;2024-03-29T09:29:37;14.30;90.70
36450;DHT22;22475;51.390;7.180;2024-03-29T09:32:06;14.30;90.40
36450;DHT22;22475;51.390;7.180;2024-03-29T09:34:33;14.20;90.40
36450;DHT22;22475;51.390;7.180;2024-03-29T09:37:00;14.20;90.70
36450;DHT22;22475;51.390;7.180;2024-03-29T09:39:27;14.30;90.50
36450;DHT22;22475;51.390;7.180;2024-03-29T09:41:55;14.20;90.60
36450;DHT22;22475;51.390;7.180;2024-03-29T09:44:26;14.20;90.90
36450;DHT22;22475;51.390;7.180;2024-03-29T09:46:55;14.20;90.90
36450;DHT22;22475;51.390;7.180;2024-03-29T09:49:24;14.20;90.70
36450;DHT22;22475;51.390;7.180;2024-03-29T09:51:51;14.30;90.40
36450;DHT22;22475;51.390;7.180;2024-03-29T09:54:18;14.30;90.50
36450;DHT22;22475;51.390;7.180;2024-03-29T09:56:45;14.30;90.30
36450;DHT22;22475;51.390;7.180;2024-03-29T09:59:11;14.30;90.30
36450;DHT22;22475;51.390;7.180;2024-03-29T10:01:38;14.30;90.30
36450;DHT22;22475;51.390;7.180;2024-03-29T10:04:06;14.30;90.30
36450;DHT22;22475;51.390;7.180;2024-03-29T10:06:34;14.40;90.40
36450;DHT22;22475;51.390;7.180;2024-03-29T10:09:02;14.30;90.40
36450;DHT22;22475;51.390;7.180;2024-03-29T10:11:29;14.30;90.30
36450;DHT22;22475;51.390;7.180;2024-03-29T10:13:56;14.30;90.40
36450;DHT22;22475;51.390;7.180;2024-03-29T10:16:23;14.30;90.70
36450;DHT22;22475;51.390;7.180;2024-03-29T10:18:50;14.30;90.80
36450;DHT22;22475;51.390;7.180;2024-03-29T10:21:17;14.40;90.60
36450;DHT22;22475;51.390;7.180;2024-03-29T10:23:46;14.30;90.60
36450;DHT22;22475;51.390;7.180;2024-03-29T10:26:14;14.40;90.00
36450;DHT22;22475;51.390;7.180;2024-03-29T10:28:43;14.40;90.00
36450;DHT22;22475;51.390;7.180;2024-03-29T10:31:11;14.50;89.60
36450;DHT22;22475;51.390;7.180;2024-03-29T10:33:41;14.40;90.00
36450;DHT22;22475;51.390;7.180;2024-03-29T10:36:08;14.50;90.10
36450;DHT22;22475;51.390;7.180;2024-03-29T10:38:37;14.40;90.10
36450;DHT22;22475;51.390;7.180;2024-03-29T10:41:06;14.40;90.30
36450;DHT22;22475;51.390;7.180;2024-03-29T10:43:34;14.50;90.20
36450;DHT22;22475;51.390;7.180;2024-03-29T10:46:01;14.40;90.10
36450;DHT22;22475;51.390;7.180;2024-03-29T10:48:30;14.50;89.50
36450;DHT22;22475;51.390;7.180;2024-03-29T10:50:58;14.50;89.00
36450;DHT22;22475;51.390;7.180;2024-03-29T10:53:27;14.60;89.00
36450;DHT22;22475;51.390;7.180;2024-03-29T10:55:54;14.50;89.60
36450;DHT22;22475;51.390;7.180;2024-03-29T10:58:26;14.50;90.00
36450;DHT22;22475;51.390;7.180;2024-03-29T11:00:57;14.50;89.70
36450;DHT22;22475;51.390;7.180;2024-03-29T11:03:32;14.60;89.00
36450;DHT22;22475;51.390;7.180;2024-03-29T11:06:02;14.60;88.80
36450;DHT22;22475;51.390;7.180;2024-03-29T11:08:32;14.60;88.50
36450;DHT22;22475;51.390;7.180;2024-03-29T11:11:02;14.60;88.00
36450;DHT22;22475;51.390;7.180;2024-03-29T11:13:34;14.60;88.20
36450;DHT22;22475;51.390;7.180;2024-03-29T11:16:04;14.60;89.00
36450;DHT22;22475;51.390;7.180;2024-03-29T11:18:31;14.50;89.10
36450;DHT22;22475;51.390;7.180;2024-03-29T11:20:59;14.50;89.60
36450;DHT22;22475;51.390;7.180;2024-03-29T11:23:28;14.50;89.70
36450;DHT22;22475;51.390;7.180;2024-03-29T11:25:55;14.50;89.90
36450;DHT22;22475;51.390;7.180;2024-03-29T11:28:25;14.50;90.00
36450;DHT22;22475;51.390;7.180;2024-03-29T11:30:58;14.50;90.10
36450;DHT22;22475;51.390;7.180;2024-03-29T11:33:29;14.50;90.20
36450;DHT22;22475;51.390;7.180;2024-03-29T11:35:57;14.50;90.20
36450;DHT22;22475;51.390;7.180;2024-03-29T11:38:30;14.60;90.20
36450;DHT22;22475;51.390;7.180;2024-03-29T11:41:05;14.60;90.20
36450;DHT22;22475;51.390;7.180;2024-03-29T11:43:32;14.50;90.30
36450;DHT22;22475;51.390;7.180;2024-03-29T11:46:01;14.50;90.50
36450;DHT22;22475;51.390;7.180;2024-03-29T11:48:29;14.50;90.40
36450;DHT22;22475;51.390;7.180;2024-03-29T11:50:58;14.50;90.60
36450;DHT22;22475;51.390;7.180;2024-03-29T11:53:26;14.50;90.70
36450;DHT22;22475;51.390;7.180;2024-03-29T11:55:53;14.50;90.80
36450;DHT22;22475;51.390;7.180;2024-03-29T11:58:21;14.50;90.80
36450;DHT22;22475;51.390;7.180;2024-03-29T12:00:48;14.50;90.80
36450;DHT22;22475;51.390;7.180;2024-03-29T12:03:18;14.60;90.70
36450;DHT22;22475;51.390;7.180;2024-03-29T12:05:46;14.70;90.80
36450;DHT22;22475;51.390;7.180;2024-03-29T12:08:13;14.60;90.70
36450;DHT22;22475;51.390;7.180;2024-03-29T12:10:40;14.60;90.80
36450;DHT22;22475;51.390;7.180;2024-03-29T12:13:07;14.60;90.70
36450;DHT22;22475;51.390;7.180;2024-03-29T12:15:34;14.70;90.80
36450;DHT22;22475;51.390;7.180;2024-03-29T12:18:02;14.70;90.80
36450;DHT22;22475;51.390;7.180;2024-03-29T12:20:32;14.70;90.80
36450;DHT22;22475;51.390;7.180;2024-03-29T12:22:59;14.70;90.80
36450;DHT22;22475;51.390;7.180;2024-03-29T12:25:27;14.70;90.90
36450;DHT22;22475;51.390;7.180;2024-03-29T12:27:53;14.70;90.90
36450;DHT22;22475;51.390;7.180;2024-03-29T12:30:21;14.70;90.90
36450;DHT22;22475;51.390;7.180;2024-03-29T12:32:48;14.70;91.10
36450;DHT22;22475;51.390;7.180;2024-03-29T12:35:16;14.60;90.70
36450;DHT22;22475;51.390;7.180;2024-03-29T12:37:49;14.60;90.70
36450;DHT22;22475;51.390;7.180;2024-03-29T12:40:17;14.60;90.70
36450;DHT22;22475;51.390;7.180;2024-03-29T12:42:47;14.70;90.80
36450;DHT22;22475;51.390;7.180;2024-03-29T12:45:14;14.70;90.70
36450;DHT22;22475;51.390;7.180;2024-03-29T12:47:42;14.70;90.80
36450;DHT22;22475;51.390;7.180;2024-03-29T12:50:10;14.70;90.90
36450;DHT22;22475;51.390;7.180;2024-03-29T12:52:39;14.70;90.80
36450;DHT22;22475;51.390;7.180;2024-03-29T12:55:08;14.80;90.60
36450;DHT22;22475;51.390;7.180;2024-03-29T12:57:35;14.70;90.40
36450;DHT22;22475;51.390;7.180;2024-03-29T13:00:03;14.80;90.50
36450;DHT22;22475;51.390;7.180;2024-03-29T13:02:34;14.70;90.50
36450;DHT22;22475;51.390;7.180;2024-03-29T13:05:01;14.70;90.60
36450;DHT22;22475;51.390;7.180;2024-03-29T13:07:28;14.80;90.70
36450;DHT22;22475;51.390;7.180;2024-03-29T13:09:54;14.80;90.80
36450;DHT22;22475;51.390;7.180;2024-03-29T13:12:23;14.80;90.80
36450;DHT22;22475;51.390;7.180;2024-03-29T13:14:49;14.70;90.70
36450;DHT22;22475;51.390;7.180;2024-03-29T13:17:15;14.80;90.70
36450;DHT22;22475;51.390;7.180;2024-03-29T13:19:42;14.70;90.70
36450;DHT22;22475;51.390;7.180;2024-03-29T13:22:08;14.70;90.90
36450;DHT22;22475;51.390;7.180;2024-03-29T13:24:37;14.70;90.90
36450;DHT22;22475;51.390;7.180;2024-03-29T13:27:04;14.80;90.80
36450;DHT22;22475;51.390;7.180;2024-03-29T13:29:32;14.80;90.70
36450;DHT22;22475;51.390;7.180;2024-03-29T13:31:59;14.80;90.60
36450;DHT22;22475;51.390;7.180;2024-03-29T13:34:25;14.80;90.60
36450;DHT22;22475;51.390;7.180;2024-03-29T13:36:52;14.80;90.60
36450;DHT22;22475;51.390;7.180;2024-03-29T13:39:19;14.80;90.60
36450;DHT22;22475;51.390;7.180;2024-03-29T13:41:48;14.80;90.70
36450;DHT22;22475;51.390;7.180;2024-03-29T13:44:15;14.90;90.70
36450;DHT22;22475;51.390;7.180;2024-03-29T13:46:49;14.90;90.60
36450;DHT22;22475;51.390;7.180;2024-03-29T13:49:19;14.90;90.70
36450;DHT22;22475;51.390;7.180;2024-03-29T13:51:46;14.90;90.60
36450;DHT22;22475;51.390;7.180;2024-03-29T13:54:13;14.90;90.60
36450;DHT22;22475;51.390;7.180;2024-03-29T13:56:40;14.90;90.60
36450;DHT22;22475;51.390;7.180;2024-03-29T13:59:06;14.90;90.60
36450;DHT22;22475;51.390;7.180;2024-03-29T14:01:33;14.90;90.70
36450;DHT22;22475;51.390;7.180;2024-03-29T14:04:01;14.90;90.70
36450;DHT22;22475;51.390;7.180;2024-03-29T14:06:28;14.80;91.00
36450;DHT22;22475;51.390;7.180;2024-03-29T14:08:55;14.80;91.10
36450;DHT22;22475;51.390;7.180;2024-03-29T14:11:22;14.80;91.10
36450;DHT22;22475;51.390;7.180;2024-03-29T14:13:49;14.80;91.10
36450;DHT22;22475;51.390;7.180;2024-03-29T14:16:21;14.80;91.10
36450;DHT22;22475;51.390;7.180;2024-03-29T14:18:48;14.80;91.30
36450;DHT22;22475;51.390;7.180;2024-03-29T14:21:16;14.80;91.20
36450;DHT22;22475;51.390;7.180;2024-03-29T14:23:42;14.80;91.20
36450;DHT22;22475;51.390;7.180;2024-03-29T14:26:09;14.80;91.30
36450;DHT22;22475;51.390;7.180;2024-03-29T14:28:36;14.80;91.40
36450;DHT22;22475;51.390;7.180;2024-03-29T14:31:03;14.70;91.40
36450;DHT22;22475;51.390;7.180;2024-03-29T14:33:30;14.70;91.50
36450;DHT22;22475;51.390;7.180;2024-03-29T14:35:57;14.70;91.60
36450;DHT22;22475;51.390;7.180;2024-03-29T14:38:25;14.80;91.80
36450;DHT22;22475;51.390;7.180;2024-03-29T14:40:52;14.80;91.90
36450;DHT22;22475;51.390;7.180;2024-03-29T14:43:19;14.70;92.00
36450;DHT22;22475;51.390;7.180;2024-03-29T14:45:45;14.70;92.10
36450;DHT22;22475;51.390;7.180;2024-03-29T14:48:14;14.80;92.00
36450;DHT22;22475;51.390;7.180;2024-03-29T14:50:41;14.90;91.30
36450;DHT22;22475;51.390;7.180;2024-03-29T14:53:08;14.90;91.10
36450;DHT22;22475;51.390;7.180;2024-03-29T14:55:36;14.90;91.00
36450;DHT22;22475;51.390;7.180;2024-03-29T14:58:05;14.90;91.00
36450;DHT22;22475;51.390;7.180;2024-03-29T15:00:32;14.90;91.00
36450;DHT22;22475;51.390;7.180;2024-03-29T15:02:58;14.80;91.00
36450;DHT22;22475;51.390;7.180;2024-03-29T15:05:25;14.90;90.90
36450;DHT22;22475;51.390;7.180;2024-03-29T15:07:52;14.90;90.90
36450;DHT22;22475;51.390;7.180;2024-03-29T15:10:19;14.90;90.90
36450;DHT22;22475;51.390;7.180;2024-03-29T15:12:48;14.90;90.80
36450;DHT22;22475;51.390;7.180;2024-03-29T15:15:15;14.90;90.90
36450;DHT22;22475;51.390;7.180;2024-03-29T15:17:42;15.00;90.70
36450;DHT22;22475;51.390;7.180;2024-03-29T15:20:10;15.00;90.70
36450;DHT22;22475;51.390;7.180;2024-03-29T15:22:37;15.00;90.60
36450;DHT22;22475;51.390;7.180;2024-03-29T15:25:05;15.00;90.70
36450;DHT22;22475;51.390;7.180;2024-03-29T15:27:32;15.00;90.60
36450;DHT22;22475;51.390;7.180;2024-03-29T15:30:14;15.00;90.60
36450;DHT22;22475;51.390;7.180;2024-03-29T15:32:41;15.00;90.60